Surfing & Ski Diseño Web|Fotos|Meteorología|Comentarios

Tike 10 es un laboratorio Web, dedicado a la exposición de fotografías y a los lenguajes HTML + PHP
MB+
Drive
Bin | PHP
*
Galerias
+/-
Horas de trabajo

Tike10 LAB | Fotos a través del tiempo - 2005

Bienvenidos. Tike10 es un laboratorio Web dedicado a la exposición de fotografías y a los lenguajes HTML y PHP.

Image

El tema principal son las fotos de Surf, acompañadas durante los inviernos de Asturias con fotografías de los deportes blancos, más generalizado el Ski.

Fotos de paisajes y montañas, arquitectura, fotografías panorámicas, deportes, retratos y fotografía en fiestas, son los temas tocados desde este Web Site.

https://www.tike10.com/fotos/


Lenguajes y Seguridad en la Red

Nuestros diseños de páginas Web están desarrollados a la medida de las necesidades de nuestros clientes. Trabajamos como “freelance” desde el año 2005.
Servidores Cloud de última generación. Siempre intentamos que la inversión de nuestros clientes les retorne lo más rápido posible, para ello ofrecemos un servicio de hosting moderno y competente a nivel global, con las mejores y más modernas herramientas para interactuar a través de las páginas Web.
Potencia, privacidad y seguridad a buen precio, servidores alojados en España dentro de un centro de datos de primera categoría mundial.

Meteorología Surf & Ski

Datos reales de las estaciones meteorológicas del Estado.

Otro tema importante que desarrollamos en Tike 10 es la Meteorología, presentamos datos reales de las estaciones meteorológicas del Estado: https://www.aemet.es

Recogemos datos de la temperatura, la velocidad y dirección del viento, así como de las precipitaciones y la humedad relativa. En otros casos altura de las olas, los periodos, y la dirección de la marejada. | Meteorología

Fecha, hora, temperatura, viento dirección y velocidad, humedad y presión.

  • 24-02-2019 01:00:00 | 8.50°C | Sudeste |6.00 km/h | 82.00% | 1015.60 hPa
  • 24-02-2019 00:00:00 | 10.20°C | Sur |3.00 km/h | 76.00% | 1016.10 hPa
  • 23-02-2019 23:00:00 | 9.00°C | Sur |5.00 km/h | 85.00% | 1016.10 hPa
  • 23-02-2019 22:00:00 | 9.50°C | Sudeste |14.00 km/h | 83.00% | 1016.50 hPa
  • 23-02-2019 21:00:00 | 10.00°C | Sudeste |12.00 km/h | 81.00% | 1016.70 hPa
  • 23-02-2019 20:00:00 | 10.30°C | Sudeste |15.00 km/h | 79.00% | 1016.50 hPa
  • 23-02-2019 19:00:00 | 14.60°C | Este |15.00 km/h | 64.00% | 1015.90 hPa
  • 23-02-2019 18:00:00 | 15.70°C | Este |10.00 km/h | 62.00% | 1015.40 hPa
  • 23-02-2019 17:00:00 | 17.00°C | Este |13.00 km/h | 58.00% | 1014.90 hPa
  • 23-02-2019 16:00:00 | 18.20°C | Este |9.00 km/h | 55.00% | 1014.60 hPa
  • 23-02-2019 15:00:00 | 18.40°C | Este |13.00 km/h | 49.00% | 1014.60 hPa
  • 23-02-2019 14:00:00 | 18.90°C | Sudeste |16.00 km/h | 46.00% | 1015.10 hPa
  • 23-02-2019 13:00:00 | 17.40°C | Sudeste |10.00 km/h | 52.00% | 1015.70 hPa
  • 23-02-2019 12:00:00 | 17.50°C | Sudeste |11.00 km/h | 53.00% | 1016.00 hPa
  • 23-02-2019 11:00:00 | 14.80°C | Sur |9.00 km/h | 51.00% | 1016.30 hPa
  • 23-02-2019 10:00:00 | 11.80°C | Sudoeste |10.00 km/h | 58.00% | 1016.00 hPa
  • 23-02-2019 09:00:00 | 11.10°C | Sur |16.00 km/h | 54.00% | 1015.60 hPa
  • 23-02-2019 08:00:00 | 9.80°C | Sudoeste |12.00 km/h | 62.00% | 1014.80 hPa
  • 23-02-2019 07:00:00 | 9.50°C | Sudoeste |10.00 km/h | 62.00% | 1014.10 hPa
  • 23-02-2019 06:00:00 | 11.00°C | Sudoeste |12.00 km/h | 55.00% | 1013.30 hPa
  • 23-02-2019 05:00:00 | 13.00°C | Sudoeste |17.00 km/h | 45.00% | 1012.30 hPa
  • 23-02-2019 04:00:00 | 12.90°C | Sudoeste |19.00 km/h | 47.00% | 1012.00 hPa
  • 23-02-2019 03:00:00 | 12.70°C | Sudoeste |21.00 km/h | 50.00% | 1012.10 hPa
  • 23-02-2019 02:00:00 | 13.20°C | Sudoeste |21.00 km/h | 52.00% | 1012.10 hPa